Terminal Aerodrome Forecast
Issued by NWS

Current Version | Previous Version | Text Only | Print | Product List | Glossary On
Versions: 1 2 3 4 5 6 7 8 9 10 11 12 13 14 15 16 17
444
FTUS43 KGRB 201245 AAB
TAFAUW
TAF AMD
KAUW 201245Z 2013/2112 12005KT 6SM BR OVC006
      TEMPO 2013/2016 5SM -FZDZ BR
     FM201800 26005KT 5SM BR OVC008
     FM202100 27009G17KT P6SM OVC010
     FM202300 29007KT P6SM BKN017
     FM210200 30010KT P6SM SCT025=

USA.gov is the U.S. government's official web portal to all federal, state and local government web resources and services.